Flushing, New York
Current Conditions -  °F | °C
As of 8:51 AM on Monday 26 Jan 2015 (Local Time) from KLGA Reporting Station
Light Snow Light Snow  
Wind Chill: 11°   Ceiling: 2400
Heat Index: 25°   Visibility: 1mi
Dew Point: 18°   Wind: 21mph
Humidity: 75%   Direction: 50°NE
Pressure: 30.01"   Gusts: NA
Location:  40.77°N, 73.82°W
Report Text: KLGA 261351Z 05018KT 1SM R04/5500VP6000FT -SN BKN024 OVC033 M04/M08 A3001 RMK AO2 SFC VIS 1 1/4 SLP163 P0000 T10391078 $
Loading
Personal Weather Stations






























Interactive Weather Map New forecast layout! Learn more

10-Day Weather Forecast

Advertisements
Track Severe Weather on mobile